KRTN Airport (Raton Muni/Crews Field) Information

FAA: RTN - ICAO: KRTN

KRTN Airport Location

State New Mexico
County Colfax
City Raton
KRTN Airport is 10 miles southwest of Raton, NM.
Latitude 36-44-32.7810N
Longitude 104-30-06.2150W
Elevation 6,352ft

KRTN Airport METARs

METAR KRTN 280153Z AUTO 01007KT 10SM CLR 06/M11 A3004 RMK AO2 SLP153 T00561106
Altimeter 30.04"
Temperature 5.6°C (42.1°F)
Wind 10° at 7KT
Clouds Skies are clear.
Visibility 10.0mi
Time observed: 2021-10-28T01:53:00Z

KRTN Airport Details

Status Operational
Activation N/A
Ownership Public
Usage Public
Chart DENVER
ATC on-site No
Beacon schedule sunset-sunrise
Beacon color clear green

KRTN Airport Contacts

Owner CITY OF RATON
Owner address BOX 19, RATON, NM 87740
Owner phone 575-445-9551
Manager KEN HUMPHREYS
Manager address PO BOX 1546, MORIATY, NM 87035
Manager phone (505) 710-4334

KRTN Airport (Raton Muni/Crews Field) Radio Frequencies

KRTN (Airport) Radio Frequencies

UNICOM 122.8
Common traffic advisory frequency (CTAF) 122.8